Down Up Stop Top
)

MTZ128
There are no active watches, warnings or advisories


Click here for the last 24 hour graph
Click here for the last 48 hour graph
Click here for the last 72 hour graph
Click here for the month to date graph

Weather report/warning/Metars

LOGAN INTERNATIONAL AIRPORT, MT, United States (KBIL) 45-49N 108-33W 1091M
Aug 10, 2020 - 11:53 AM EDT / 2020.08.10 1553 UTC
Wind: from the SSW (210 degrees) at 10 MPH (9 KT):0
Visibility: 10 mile(s):0
Sky conditions: mostly clear
Temperature: 64.9 F (18.3 C)
Dew Point: 41.0 F (5.0 C)
Relative Humidity: 41%
Pressure (altimeter): 30.09 in. Hg (1018 hPa)
ob: KBIL 101553Z 21009KT 10SM FEW150 18/05 A3009 RMK AO2 SLP166 T01830050
cycle: 16



The data is logged at two minute intervals, but there is data recorded every minute.

Use the RELOAD facility on your browser to retrieve the latest data.

Click here for a daily update of the averages/extremes to date for the month
Created by "Weather Display" software version 10.37S at this start time/date 6:26:30 PM 3/10/2019